createdAt,value
2019-05-17T00:00:16.777Z,7.90
2019-05-17T00:02:46.436Z,7.95
2019-05-17T00:05:13.371Z,7.62
2019-05-17T00:07:40.458Z,7.62
2019-05-17T00:10:07.950Z,8.00
2019-05-17T00:12:36.718Z,8.30
2019-05-17T00:15:09.450Z,8.30
2019-05-17T00:17:37.801Z,7.72
2019-05-17T00:20:06.305Z,8.20
2019-05-17T00:22:33.558Z,8.20
2019-05-17T00:25:00.660Z,7.40
2019-05-17T00:27:27.655Z,8.40
2019-05-17T00:29:56.991Z,9.23
2019-05-17T00:32:23.987Z,8.55
2019-05-17T00:34:51.033Z,8.93
2019-05-17T00:37:18.179Z,9.13
2019-05-17T00:39:47.176Z,9.58
2019-05-17T00:42:17.029Z,10.23
2019-05-17T00:44:44.222Z,10.30
2019-05-17T00:47:11.412Z,9.43
2019-05-17T00:49:38.651Z,9.88
2019-05-17T00:52:07.193Z,10.68
2019-05-17T00:54:36.191Z,10.58
2019-05-17T00:57:03.939Z,10.18
2019-05-17T00:59:31.555Z,9.75
2019-05-17T01:01:58.875Z,10.60
2019-05-17T01:04:27.585Z,9.45
2019-05-17T01:06:56.315Z,10.20
2019-05-17T01:09:23.463Z,9.78
2019-05-17T01:11:50.541Z,10.88
2019-05-17T01:14:17.773Z,9.63
2019-05-17T01:16:47.324Z,10.08
2019-05-17T01:19:13.675Z,9.38
2019-05-17T01:21:40.995Z,9.78
2019-05-17T01:24:07.986Z,10.88
2019-05-17T01:26:37.215Z,9.75
2019-05-17T01:29:04.126Z,9.88
2019-05-17T01:31:31.751Z,10.45
2019-05-17T01:33:58.720Z,9.95
2019-05-17T01:36:26.342Z,10.98
2019-05-17T01:38:53.582Z,9.50
2019-05-17T01:41:20.567Z,10.53
2019-05-17T01:43:48.066Z,9.58
2019-05-17T01:46:17.224Z,9.50
2019-05-17T01:48:44.112Z,9.40
2019-05-17T01:51:17.035Z,9.08
2019-05-17T01:53:44.269Z,8.75
2019-05-17T01:56:11.358Z,9.80
2019-05-17T01:58:38.391Z,10.40
2019-05-17T02:01:07.723Z,9.83
2019-05-17T02:03:34.823Z,8.75
2019-05-17T02:06:03.017Z,9.88
2019-05-17T02:08:30.105Z,9.10
2019-05-17T02:10:58.435Z,9.40
2019-05-17T02:13:26.777Z,8.80
2019-05-17T02:15:56.285Z,9.33
2019-05-17T02:18:23.914Z,9.75
2019-05-17T02:20:50.971Z,9.05
2019-05-17T02:23:18.244Z,9.35
2019-05-17T02:25:47.217Z,9.10
2019-05-17T02:28:14.204Z,8.68
2019-05-17T02:30:44.100Z,9.38
2019-05-17T02:33:12.660Z,8.90
2019-05-17T02:35:42.705Z,8.83
2019-05-17T02:38:09.101Z,8.53
2019-05-17T02:40:36.043Z,8.40
2019-05-17T02:43:03.702Z,8.13
2019-05-17T02:45:32.723Z,7.78
2019-05-17T02:48:03.973Z,8.40
2019-05-17T02:50:33.198Z,8.58
2019-05-17T02:52:59.255Z,8.18
2019-05-17T02:55:26.275Z,9.18
2019-05-17T02:57:53.246Z,9.70
2019-05-17T03:00:23.910Z,9.48
2019-05-17T03:02:53.630Z,9.03
2019-05-17T03:05:22.965Z,9.80
2019-05-17T03:07:48.774Z,8.98
2019-05-17T03:10:24.116Z,9.70
2019-05-17T03:12:45.163Z,9.40
2019-05-17T03:15:13.117Z,9.10
2019-05-17T03:17:43.400Z,9.73
2019-05-17T03:20:12.838Z,8.80
2019-05-17T03:22:43.405Z,9.53
2019-05-17T03:25:13.216Z,9.68
2019-05-17T03:27:38.935Z,9.38
2019-05-17T03:30:06.330Z,9.73
2019-05-17T03:32:36.373Z,9.98
2019-05-17T03:35:06.955Z,10.18
2019-05-17T03:37:37.690Z,10.03
2019-05-17T03:40:21.689Z,10.05
2019-05-17T03:42:33.249Z,11.25
2019-05-17T03:45:02.893Z,10.88
2019-05-17T03:47:32.730Z,10.28
2019-05-17T03:49:58.583Z,11.25
2019-05-17T03:52:25.902Z,11.75
2019-05-17T03:54:53.530Z,11.33
2019-05-17T03:57:23.682Z,10.85
2019-05-17T03:59:52.270Z,11.03
2019-05-17T04:02:18.554Z,11.78
2019-05-17T04:04:45.824Z,12.40
2019-05-17T04:07:13.016Z,11.55
2019-05-17T04:09:43.469Z,11.18
2019-05-17T04:12:13.322Z,11.57
2019-05-17T04:14:38.783Z,11.60
2019-05-17T04:17:06.847Z,12.70
2019-05-17T04:19:34.281Z,12.15
2019-05-17T04:22:03.586Z,11.65
2019-05-17T04:24:32.436Z,11.88
2019-05-17T04:27:03.201Z,11.97
2019-05-17T04:29:28.876Z,12.70
2019-05-17T04:31:55.979Z,12.55
2019-05-17T04:34:23.179Z,13.35
2019-05-17T04:36:52.267Z,11.40
2019-05-17T04:39:22.414Z,13.32
2019-05-17T04:41:51.128Z,12.98
2019-05-17T04:44:17.559Z,13.72
2019-05-17T04:46:44.523Z,13.03
2019-05-17T04:49:13.866Z,13.60
2019-05-17T04:51:43.727Z,12.95
2019-05-17T04:54:09.451Z,13.50
2019-05-17T04:56:36.695Z,13.78
2019-05-17T04:59:04.006Z,13.38
2019-05-17T05:01:33.024Z,13.13
2019-05-17T05:04:03.507Z,13.13
2019-05-17T05:06:32.570Z,14.33
2019-05-17T05:09:02.328Z,13.03
2019-05-17T05:11:28.422Z,14.33
2019-05-17T05:13:55.523Z,14.25
2019-05-17T05:16:22.881Z,12.80
2019-05-17T05:18:52.045Z,14.43
2019-05-17T05:21:19.231Z,14.15
2019-05-17T05:23:47.654Z,14.33
2019-05-17T05:26:14.687Z,14.73
2019-05-17T05:28:42.101Z,13.15
2019-05-17T05:31:09.414Z,13.20
2019-05-17T05:33:36.540Z,12.80
2019-05-17T05:36:03.879Z,13.13
2019-05-17T05:38:31.963Z,14.25
2019-05-17T05:41:01.607Z,13.08
2019-05-17T05:43:28.727Z,13.00
2019-05-17T05:45:56.042Z,13.20
2019-05-17T05:48:23.642Z,12.30
2019-05-17T05:50:52.096Z,12.37
2019-05-17T05:53:21.650Z,12.35
2019-05-17T05:55:48.288Z,11.40
2019-05-17T05:58:15.542Z,12.18
2019-05-17T06:00:43.140Z,12.28
2019-05-17T06:03:12.006Z,12.05
2019-05-17T06:05:41.954Z,11.65
2019-05-17T06:08:08.327Z,11.75
2019-05-17T06:10:35.415Z,11.30
2019-05-17T06:13:03.312Z,11.83
2019-05-17T06:15:32.054Z,11.45
2019-05-17T06:17:59.313Z,11.10
2019-05-17T06:20:26.295Z,9.83
2019-05-17T06:22:53.595Z,10.60
2019-05-17T06:25:23.388Z,9.33
2019-05-17T06:27:51.980Z,10.65
2019-05-17T06:30:21.805Z,9.58
2019-05-17T06:32:48.002Z,10.53
2019-05-17T06:35:15.319Z,10.63
2019-05-17T06:37:42.713Z,9.53
2019-05-17T06:40:13.223Z,10.00
2019-05-17T06:42:44.753Z,8.83
2019-05-17T06:45:12.224Z,9.58
2019-05-17T06:47:38.910Z,9.95
2019-05-17T06:50:06.228Z,9.25
2019-05-17T06:52:33.277Z,9.75
2019-05-17T06:55:05.335Z,9.50
2019-05-17T06:57:32.462Z,8.93
2019-05-17T07:00:02.470Z,9.68
2019-05-17T07:02:30.840Z,9.68
2019-05-17T07:05:01.677Z,9.93
2019-05-17T07:07:30.680Z,10.20
2019-05-17T07:10:00.472Z,10.20
2019-05-17T07:12:27.579Z,9.88
2019-05-17T07:14:54.819Z,10.25
2019-05-17T07:17:22.959Z,10.30
2019-05-17T07:19:50.883Z,10.32
2019-05-17T07:22:21.000Z,11.03
2019-05-17T07:24:47.530Z,10.25
2019-05-17T07:27:15.043Z,10.85
2019-05-17T07:29:42.001Z,10.85
2019-05-17T07:32:09.792Z,11.10
2019-05-17T07:34:39.578Z,11.28
2019-05-17T07:37:06.512Z,10.85
2019-05-17T07:39:33.545Z,11.22
2019-05-17T07:42:01.338Z,11.25
2019-05-17T07:44:29.518Z,11.25
2019-05-17T07:46:56.729Z,10.48
2019-05-17T07:49:24.295Z,9.85
2019-05-17T07:51:51.518Z,9.50
2019-05-17T07:54:19.749Z,9.60
2019-05-17T07:56:47.269Z,10.68
2019-05-17T07:59:14.459Z,10.35
2019-05-17T08:01:41.446Z,11.03
2019-05-17T08:04:10.030Z,12.07
2019-05-17T08:06:40.006Z,10.82
2019-05-17T08:09:06.643Z,11.22
2019-05-17T08:11:33.927Z,10.50
2019-05-17T08:14:01.286Z,10.28
2019-05-17T08:16:30.374Z,10.48
2019-05-17T08:18:57.523Z,10.90
2019-05-17T08:21:24.963Z,10.85
2019-05-17T08:23:51.987Z,10.95
2019-05-17T08:26:20.267Z,11.10
2019-05-17T08:28:49.778Z,10.95
2019-05-17T08:31:16.813Z,12.00
2019-05-17T08:33:44.533Z,10.95
2019-05-17T08:36:12.641Z,10.53
2019-05-17T08:38:39.812Z,11.35
2019-05-17T08:41:07.414Z,10.53
2019-05-17T08:43:42.615Z,10.38
2019-05-17T08:46:04.101Z,11.30
2019-05-17T08:48:31.402Z,10.95
2019-05-17T08:51:00.169Z,9.83
2019-05-17T08:53:30.350Z,10.98
2019-05-17T08:55:57.231Z,10.88
2019-05-17T08:58:24.274Z,10.70
2019-05-17T09:00:51.348Z,10.25
2019-05-17T09:03:19.576Z,11.30
2019-05-17T09:05:46.785Z,11.95
2019-05-17T09:08:13.799Z,12.53
2019-05-17T09:10:41.160Z,15.35
2019-05-17T09:13:12.471Z,11.30
2019-05-17T09:15:39.757Z,10.30
2019-05-17T09:18:09.763Z,11.22
2019-05-17T09:20:36.657Z,10.85
2019-05-17T09:23:05.396Z,11.75
2019-05-17T09:25:32.752Z,12.58
2019-05-17T09:28:00.736Z,11.70
2019-05-17T09:30:32.382Z,11.68
2019-05-17T09:33:12.874Z,12.43
2019-05-17T09:35:52.576Z,13.22
2019-05-17T09:38:20.387Z,12.80
2019-05-17T09:40:53.911Z,11.70
2019-05-17T09:43:21.138Z,12.53
2019-05-17T09:45:50.821Z,12.30
2019-05-17T09:48:21.119Z,11.95
2019-05-17T09:50:54.206Z,11.90
2019-05-17T09:53:31.939Z,12.35
2019-05-17T09:56:05.338Z,12.23
2019-05-17T09:58:39.512Z,11.25
2019-05-17T10:01:05.924Z,12.58
2019-05-17T10:03:43.329Z,11.03
2019-05-17T10:06:11.334Z,11.10
2019-05-17T10:08:40.307Z,11.00
2019-05-17T10:11:09.653Z,10.70
2019-05-17T10:13:37.046Z,9.40
2019-05-17T10:16:04.571Z,10.48
2019-05-17T10:18:31.747Z,9.68
2019-05-17T10:20:59.880Z,9.00
2019-05-17T10:23:27.135Z,9.63
2019-05-17T10:25:54.438Z,10.43
2019-05-17T10:28:21.492Z,10.50
2019-05-17T10:30:52.293Z,8.85
2019-05-17T10:33:20.049Z,9.50
2019-05-17T10:35:49.554Z,9.70
2019-05-17T10:38:16.249Z,8.83
2019-05-17T10:40:43.630Z,9.28
2019-05-17T10:43:10.810Z,8.60
2019-05-17T10:45:40.055Z,9.50
2019-05-17T10:48:09.925Z,7.78
2019-05-17T10:50:36.478Z,7.80
2019-05-17T10:53:03.768Z,8.15
2019-05-17T10:55:31.186Z,7.62
2019-05-17T10:58:00.320Z,8.08
2019-05-17T11:00:30.125Z,8.88
2019-05-17T11:02:56.289Z,8.48
2019-05-17T11:05:23.467Z,8.43
2019-05-17T11:07:50.735Z,8.45
2019-05-17T11:10:19.477Z,7.30
2019-05-17T11:12:46.660Z,7.12
2019-05-17T11:15:14.359Z,6.90
2019-05-17T11:17:41.599Z,7.00
2019-05-17T11:20:10.834Z,7.10
2019-05-17T11:22:38.206Z,7.58
2019-05-17T11:25:05.911Z,7.50
2019-05-17T11:27:36.435Z,7.12
2019-05-17T11:30:05.571Z,6.97
2019-05-17T11:32:33.453Z,6.90
2019-05-17T11:35:00.563Z,7.40
2019-05-17T11:37:27.646Z,7.78
2019-05-17T11:39:54.849Z,6.78
2019-05-17T11:42:21.878Z,7.25
2019-05-17T11:44:48.955Z,7.22
2019-05-17T11:47:15.935Z,6.40
2019-05-17T11:49:43.406Z,6.08
2019-05-17T11:52:11.024Z,6.62
2019-05-17T11:54:38.104Z,6.30
2019-05-17T11:57:05.475Z,5.60
2019-05-17T11:59:36.085Z,5.72
2019-05-17T12:02:03.262Z,6.12
2019-05-17T12:04:30.385Z,6.53
2019-05-17T12:06:57.576Z,6.90
2019-05-17T12:09:36.549Z,7.50
2019-05-17T12:11:54.075Z,6.80
2019-05-17T12:14:22.194Z,6.80
2019-05-17T12:16:49.273Z,6.92
2019-05-17T12:19:17.814Z,7.22
2019-05-17T12:21:44.868Z,7.33
2019-05-17T12:24:11.977Z,7.70
2019-05-17T12:26:39.138Z,7.12
2019-05-17T12:29:06.695Z,6.80
2019-05-17T12:31:34.113Z,6.80
2019-05-17T12:34:01.402Z,7.42
2019-05-17T12:36:29.070Z,7.90
2019-05-17T12:38:56.278Z,7.15
2019-05-17T12:41:23.364Z,6.95
2019-05-17T12:43:50.757Z,6.85
2019-05-17T12:46:18.211Z,6.97
2019-05-17T12:48:45.561Z,6.55
2019-05-17T12:51:12.895Z,6.65
2019-05-17T12:53:40.011Z,6.12
2019-05-17T12:56:07.019Z,6.65
2019-05-17T12:58:34.750Z,6.83
2019-05-17T13:01:01.773Z,6.87
2019-05-17T13:03:30.082Z,6.90
2019-05-17T13:05:57.167Z,6.70
2019-05-17T13:08:24.695Z,6.97
2019-05-17T13:10:52.370Z,6.78
2019-05-17T13:13:20.470Z,6.95
2019-05-17T13:15:47.543Z,7.10
2019-05-17T13:18:14.643Z,6.28
2019-05-17T13:20:41.616Z,6.90
2019-05-17T13:23:08.693Z,7.20
2019-05-17T13:25:36.213Z,7.10
2019-05-17T13:28:03.618Z,6.45
2019-05-17T13:30:31.440Z,5.90
2019-05-17T13:32:58.806Z,6.45
2019-05-17T13:35:25.874Z,6.40
2019-05-17T13:37:53.081Z,6.37
2019-05-17T13:40:20.429Z,7.20
2019-05-17T13:42:47.905Z,6.55
2019-05-17T13:45:15.172Z,5.92
2019-05-17T13:47:42.171Z,5.95
2019-05-17T13:50:09.802Z,5.80
2019-05-17T13:52:38.640Z,5.33
2019-05-17T13:55:06.378Z,5.67
2019-05-17T13:57:33.622Z,6.35
2019-05-17T14:00:00.646Z,6.40
2019-05-17T14:02:27.646Z,6.17
2019-05-17T14:04:54.896Z,6.03
2019-05-17T14:07:22.003Z,5.62
2019-05-17T14:09:49.041Z,12.15
2019-05-17T14:12:16.203Z,6.40
2019-05-17T14:14:43.215Z,6.83
2019-05-17T14:17:10.379Z,8.03
2019-05-17T14:19:37.814Z,6.87
2019-05-17T14:22:04.938Z,8.20
2019-05-17T14:24:32.043Z,9.03
2019-05-17T14:26:59.208Z,9.60
2019-05-17T14:29:26.400Z,7.58
2019-05-17T14:31:53.816Z,8.83
2019-05-17T14:34:20.931Z,7.70
2019-05-17T14:36:48.373Z,7.87
2019-05-17T14:39:15.349Z,8.40
2019-05-17T14:41:42.440Z,7.58
2019-05-17T14:44:09.416Z,6.60
2019-05-17T14:46:36.436Z,9.08
2019-05-17T14:49:03.507Z,6.67
2019-05-17T14:51:30.507Z,6.78
2019-05-17T14:53:57.928Z,6.78
2019-05-17T14:56:25.360Z,7.65
2019-05-17T14:58:52.351Z,7.33
2019-05-17T15:01:19.334Z,7.20
2019-05-17T15:03:46.627Z,6.78
2019-05-17T15:06:13.677Z,7.20
2019-05-17T15:08:42.258Z,7.00
2019-05-17T15:11:09.912Z,7.25
2019-05-17T15:13:36.979Z,6.87
2019-05-17T15:16:04.416Z,7.87
2019-05-17T15:18:31.666Z,6.95
2019-05-17T15:20:58.790Z,7.22
2019-05-17T15:23:26.278Z,6.50
2019-05-17T15:25:53.731Z,7.55
2019-05-17T15:28:21.004Z,6.97
2019-05-17T15:30:48.059Z,7.00
2019-05-17T15:33:15.065Z,6.60
2019-05-17T15:35:42.397Z,7.00
2019-05-17T15:38:11.209Z,6.50
2019-05-17T15:40:38.779Z,6.72
2019-05-17T15:43:05.963Z,6.10
2019-05-17T15:45:33.278Z,6.10
2019-05-17T15:48:00.339Z,6.33
2019-05-17T15:50:27.503Z,6.90
2019-05-17T15:52:54.706Z,6.22
2019-05-17T15:55:21.853Z,6.50
2019-05-17T15:57:49.131Z,6.70
2019-05-17T16:00:16.617Z,6.45
2019-05-17T16:02:44.694Z,6.60
2019-05-17T16:05:12.439Z,7.20
2019-05-17T16:07:39.440Z,6.83
2019-05-17T16:10:07.748Z,8.38
2019-05-17T16:12:34.995Z,6.85
2019-05-17T16:15:02.231Z,6.97
2019-05-17T16:17:30.320Z,5.97
2019-05-17T16:19:57.663Z,6.60
2019-05-17T16:22:24.617Z,6.25
2019-05-17T16:24:52.021Z,6.95
2019-05-17T16:27:19.144Z,6.47
2019-05-17T16:29:47.573Z,6.50
2019-05-17T16:32:14.547Z,5.78
2019-05-17T16:34:41.540Z,6.83
2019-05-17T16:37:08.539Z,6.75
2019-05-17T16:39:35.890Z,6.62
2019-05-17T16:42:03.389Z,6.03
2019-05-17T16:44:31.476Z,6.47
2019-05-17T16:46:58.696Z,6.45
2019-05-17T16:49:28.425Z,7.12
2019-05-17T16:51:54.797Z,6.95
2019-05-17T16:54:21.879Z,7.17
2019-05-17T16:56:49.239Z,7.15
2019-05-17T16:59:16.760Z,7.17
2019-05-17T17:01:44.130Z,7.80
2019-05-17T17:04:11.248Z,7.85
2019-05-17T17:06:38.251Z,7.35
2019-05-17T17:09:06.879Z,7.40
2019-05-17T17:11:34.245Z,7.78
2019-05-17T17:14:01.627Z,7.65
2019-05-17T17:16:28.724Z,7.10
2019-05-17T17:18:55.698Z,7.40
2019-05-17T17:21:23.154Z,7.40
2019-05-17T17:23:50.552Z,7.42
2019-05-17T17:26:17.919Z,6.75
2019-05-17T17:28:45.026Z,7.10
2019-05-17T17:31:15.253Z,7.30
2019-05-17T17:33:42.568Z,7.08
2019-05-17T17:36:09.923Z,8.85
2019-05-17T17:38:36.894Z,8.58
2019-05-17T17:41:04.440Z,7.33
2019-05-17T17:43:32.859Z,7.55
2019-05-17T17:46:01.700Z,7.33
2019-05-17T17:48:28.770Z,8.03
2019-05-17T17:50:56.229Z,8.48
2019-05-17T17:53:23.600Z,7.85
2019-05-17T17:55:50.563Z,7.15
2019-05-17T17:58:17.994Z,7.03
2019-05-17T18:00:45.883Z,7.55
2019-05-17T18:03:13.062Z,6.85
2019-05-17T18:05:40.759Z,7.22
2019-05-17T18:08:08.669Z,7.75
2019-05-17T18:10:36.937Z,8.08
2019-05-17T18:13:06.024Z,8.75
2019-05-17T18:15:42.563Z,7.83
2019-05-17T18:18:09.799Z,7.85
2019-05-17T18:20:37.276Z,8.30
2019-05-17T18:23:05.764Z,7.70
2019-05-17T18:25:34.071Z,8.35
2019-05-17T18:28:01.181Z,8.60
2019-05-17T18:30:28.319Z,8.73
2019-05-17T18:32:55.687Z,8.58
2019-05-17T18:35:22.705Z,9.55
2019-05-17T18:37:49.799Z,9.15
2019-05-17T18:40:18.162Z,11.65
2019-05-17T18:42:45.393Z,8.83
2019-05-17T18:45:13.913Z,9.20
2019-05-17T18:47:41.120Z,10.50
2019-05-17T18:50:09.320Z,11.15
2019-05-17T18:52:37.662Z,10.03
2019-05-17T18:55:05.238Z,14.90
2019-05-17T18:57:32.350Z,11.85
2019-05-17T19:00:00.290Z,12.60
2019-05-17T19:02:27.557Z,13.65
2019-05-17T19:04:55.778Z,12.70
2019-05-17T19:07:23.031Z,13.85
2019-05-17T19:09:50.297Z,13.43
2019-05-17T19:12:17.970Z,12.35
2019-05-17T19:14:46.415Z,12.33
2019-05-17T19:17:13.550Z,13.88
2019-05-17T19:19:41.128Z,12.78
2019-05-17T19:22:08.676Z,12.65
2019-05-17T19:24:35.960Z,12.45
2019-05-17T19:27:03.664Z,14.53
2019-05-17T19:29:31.416Z,12.05
2019-05-17T19:31:58.962Z,12.43
2019-05-17T19:34:26.134Z,11.83
2019-05-17T19:36:53.112Z,11.08
2019-05-17T19:39:20.217Z,11.73
2019-05-17T19:41:48.719Z,12.45
2019-05-17T19:44:16.247Z,12.90
2019-05-17T19:46:44.387Z,12.85
2019-05-17T19:49:12.730Z,12.30
2019-05-17T19:51:41.439Z,11.68
2019-05-17T19:54:08.622Z,12.00
2019-05-17T19:56:37.257Z,12.05
2019-05-17T19:59:05.614Z,11.57
2019-05-17T20:01:32.903Z,11.43
2019-05-17T20:04:00.861Z,12.90
2019-05-17T20:06:28.614Z,14.25
2019-05-17T20:08:55.606Z,15.08
2019-05-17T20:11:33.988Z,14.83
2019-05-17T20:13:52.534Z,13.68
2019-05-17T20:16:19.723Z,13.25
2019-05-17T20:18:46.828Z,13.95
2019-05-17T20:21:14.729Z,14.18
2019-05-17T20:23:43.776Z,13.28
2019-05-17T20:26:11.157Z,13.38
2019-05-17T20:28:38.411Z,14.43
2019-05-17T20:31:05.849Z,14.53
2019-05-17T20:33:33.654Z,13.28
2019-05-17T20:36:01.005Z,12.82
2019-05-17T20:38:28.423Z,12.43
2019-05-17T20:40:55.443Z,15.13
2019-05-17T20:43:22.732Z,15.48
2019-05-17T20:45:49.810Z,16.42
2019-05-17T20:48:16.922Z,16.50
2019-05-17T20:50:44.148Z,15.88
2019-05-17T20:53:19.033Z,17.67
2019-05-17T20:55:40.853Z,14.95
2019-05-17T20:58:09.271Z,16.17
2019-05-17T21:00:36.583Z,15.10
2019-05-17T21:03:03.999Z,14.87
2019-05-17T21:05:31.377Z,16.00
2019-05-17T21:07:58.454Z,15.53
2019-05-17T21:10:25.558Z,17.60
2019-05-17T21:12:52.906Z,18.30
2019-05-17T21:15:19.891Z,17.45
2019-05-17T21:17:46.892Z,19.75
2019-05-17T21:20:14.688Z,18.30
2019-05-17T21:22:41.863Z,17.85
2019-05-17T21:25:09.418Z,20.08
2019-05-17T21:27:36.511Z,19.00
2019-05-17T21:30:04.347Z,18.55
2019-05-17T21:32:32.343Z,18.48
2019-05-17T21:34:59.474Z,18.95
2019-05-17T21:37:26.867Z,19.42
2019-05-17T21:39:53.959Z,19.70
2019-05-17T21:42:21.524Z,20.62
2019-05-17T21:44:48.699Z,19.73
2019-05-17T21:47:15.980Z,19.60
2019-05-17T21:49:43.382Z,19.25
2019-05-17T21:52:10.635Z,19.60
2019-05-17T21:54:37.800Z,20.60
2019-05-17T21:57:04.895Z,19.42
2019-05-17T21:59:31.876Z,20.65
2019-05-17T22:01:59.403Z,20.65
2019-05-17T22:04:27.145Z,20.68
2019-05-17T22:06:54.439Z,20.90
2019-05-17T22:09:21.771Z,20.77
2019-05-17T22:11:50.823Z,21.07
2019-05-17T22:14:17.886Z,21.65
2019-05-17T22:16:45.268Z,21.97
2019-05-17T22:19:12.250Z,20.75
2019-05-17T22:21:39.694Z,22.77
2019-05-17T22:24:06.788Z,22.22
2019-05-17T22:26:34.182Z,21.95
2019-05-17T22:29:01.281Z,25.55
2019-05-17T22:31:28.277Z,23.30
2019-05-17T22:33:55.358Z,22.20
2019-05-17T22:36:22.915Z,23.65
2019-05-17T22:38:49.940Z,22.80
2019-05-17T22:41:17.212Z,23.98
2019-05-17T22:43:44.272Z,24.82
2019-05-17T22:46:11.336Z,23.90
2019-05-17T22:48:38.908Z,24.40
2019-05-17T22:51:05.983Z,25.35
2019-05-17T22:53:33.018Z,24.72
2019-05-17T22:56:00.466Z,25.92
2019-05-17T22:58:27.561Z,27.15
2019-05-17T23:00:54.904Z,23.90
2019-05-17T23:03:21.848Z,25.08
2019-05-17T23:05:48.831Z,26.07
2019-05-17T23:08:16.298Z,24.15
2019-05-17T23:10:43.298Z,25.12
2019-05-17T23:13:10.353Z,25.52
2019-05-17T23:16:09.146Z,25.20
2019-05-17T23:18:36.135Z,25.92
2019-05-17T23:21:03.996Z,25.43
2019-05-17T23:23:31.255Z,24.52
2019-05-17T23:25:58.712Z,25.32
2019-05-17T23:28:25.681Z,26.15
2019-05-17T23:30:52.987Z,26.10
2019-05-17T23:33:19.965Z,25.40
2019-05-17T23:35:47.418Z,24.80
2019-05-17T23:38:14.810Z,25.95
2019-05-17T23:40:41.754Z,25.17
2019-05-17T23:43:09.717Z,24.72
2019-05-17T23:45:37.078Z,25.88
2019-05-17T23:48:04.443Z,26.15
2019-05-17T23:50:32.507Z,25.05
2019-05-17T23:52:59.861Z,27.15
2019-05-17T23:55:27.171Z,24.23
2019-05-17T23:57:54.211Z,26.15
